Weather at Ruskey Airstrip

Public forecast

Using degrees Celsius for public forecast. Weather courtesy of forecast.io.

Closest aviation weather report (METAR) to Ruskey Airstrip

Report is more than 6 hours old.

Closest report is City of Derry Airport, 20.9 nm (38.7 km) NE. Retrieved 2022/06/30 20:50 UTC (7 hours ago):

EGAE 302050Z 24002KT 9999 7000E FEW007 SCT014 BKN023 13/12 Q1012

Closest aviation forecast (TAF) to Ruskey Airstrip

Closest forecast is Belfast International Airport, 51.1 nm (94.6 km) ESE. Retrieved 2022-07-01 00:00 UTC (4 hours ago):

TAF EGAA 302258Z 0100/0124 24008KT 9999 FEW015 SCT030 TEMPO 0101/0109 SCT008 BKN012 PROB30 TEMPO 0101/0109 8000 -SHRA PROB40 TEMPO 0109/0117 7000 SHRA BECMG 0117/0121 15010KT TEMPO 0117/0124 7000 RA PROB30 TEMPO 0118/0124 4000 +RA BECMG 0121/0124 24010KT TEMPO 0121/0124 BKN008